Time;durP1;ratioP1;P1;durP2;ratioP2;P2;SDS_P1;SDS_P2;PMS_P1;PMS_P2;Temp;Humidity;BMP_temperature;BMP_pressure;BME280_temperature;BME280_humidity;BME280_pressure;Samples;Min_cycle;Max_cycle;Signal;HPM_P1;HPM_P2
2022/01/23 00:02:15;;;;;;;20.23;11.25;;;;;;;10.40;60.60;102624.56;4931930;28;96923;-76
2022/01/23 00:04:42;;;;;;;20.13;11.52;;;;;;;10.00;61.77;102632.63;4933868;28;96829;-79
2022/01/23 00:07:12;;;;;;;18.17;11.40;;;;;;;9.99;61.34;102625.56;4934644;28;99090;-77
2022/01/23 00:09:39;;;;;;;20.00;12.23;;;;;;;10.32;61.65;102621.06;4931708;28;97829;-75
2022/01/23 00:12:11;;;;;;;22.23;11.77;;;;;;;10.07;62.53;102638.75;4934881;28;97796;-76
2022/01/23 00:17:21;;;;;;;20.42;12.43;;;;;;;10.21;60.87;102644.03;4935263;28;96879;-77
2022/01/23 00:19:50;;;;;;;18.55;12.00;;;;;;;10.60;60.72;102646.50;4936669;28;99027;-76
2022/01/23 00:22:19;;;;;;;18.13;11.55;;;;;;;10.48;60.59;102645.69;4932944;28;98826;-78
2022/01/23 00:30:23;;;;;;;18.95;11.25;;;;;;;9.99;61.96;102635.25;4877599;28;98795;-79
2022/01/23 00:32:50;;;;;;;21.17;12.02;;;;;;;10.26;61.24;102634.31;4934794;28;97028;-77
2022/01/23 00:35:17;;;;;;;17.15;10.90;;;;;;;10.02;61.12;102632.63;4928107;28;98437;-77
2022/01/23 00:37:45;;;;;;;18.42;10.35;;;;;;;9.98;62.00;102642.31;4933503;28;99078;-77
2022/01/23 00:40:12;;;;;;;17.30;10.45;;;;;;;10.15;62.06;102644.91;4933750;28;99288;-77
2022/01/23 00:42:39;;;;;;;17.73;10.32;;;;;;;10.06;63.06;102641.41;4927253;28;97160;-77
2022/01/23 00:45:24;;;;;;;19.45;11.18;;;;;;;9.96;62.29;102637.94;4934564;28;97054;-76
2022/01/23 00:47:53;;;;;;;19.80;10.95;;;;;;;10.07;62.66;102632.59;4931653;28;98415;-77
2022/01/23 00:50:19;;;;;;;17.42;10.75;;;;;;;10.24;62.16;102626.38;4933104;28;98855;-78
2022/01/23 00:52:47;;;;;;;16.58;10.43;;;;;;;10.39;61.16;102631.63;4931664;28;97709;-78
2022/01/23 00:55:13;;;;;;;15.30;9.55;;;;;;;10.08;60.92;102632.59;4932399;28;96843;-76
2022/01/23 00:57:40;;;;;;;15.57;10.00;;;;;;;10.32;61.60;102627.25;4929791;28;99474;-76
2022/01/23 01:00:08;;;;;;;14.45;10.10;;;;;;;10.56;60.85;102628.91;4930639;28;99133;-79
2022/01/23 01:02:35;;;;;;;15.30;9.35;;;;;;;10.43;61.04;102618.41;4924700;28;96864;-77
2022/01/23 01:05:01;;;;;;;14.65;9.45;;;;;;;10.04;61.50;102616.78;4930381;28;98530;-79
2022/01/23 01:07:27;;;;;;;13.73;9.13;;;;;;;10.23;61.73;102613.22;4932397;28;98214;-78
2022/01/23 01:10:00;;;;;;;14.70;9.15;;;;;;;10.37;61.71;102619.31;4931722;28;97726;-79
2022/01/23 01:12:33;;;;;;;13.73;8.98;;;;;;;10.21;61.99;102621.13;4925609;28;96810;-79
2022/01/23 01:15:27;;;;;;;13.95;8.02;;;;;;;10.13;62.22;102622.88;4935934;28;96756;-78
2022/01/23 01:32:01;;;;;;;10.63;7.60;;;;;;;10.01;62.22;102628.22;4936256;28;97190;-81
2022/01/23 01:34:35;;;;;;;9.73;7.15;;;;;;;10.42;61.31;102628.09;4935915;28;97018;-80
2022/01/23 01:37:02;;;;;;;10.77;7.35;;;;;;;10.72;60.57;102641.13;4935978;28;96955;-82
2022/01/23 01:39:29;;;;;;;10.15;7.53;;;;;;;10.63;59.60;102641.16;4933480;28;99999;-80
2022/01/23 01:41:58;;;;;;;9.18;6.90;;;;;;;10.51;61.32;102643.88;4934126;28;100857;-80
2022/01/23 01:44:25;;;;;;;10.98;7.28;;;;;;;10.60;60.74;102651.78;4933072;28;98297;-83
2022/01/23 01:46:52;;;;;;;9.57;6.60;;;;;;;10.74;60.40;102649.94;4934301;28;97559;-79
2022/01/23 01:49:25;;;;;;;9.55;6.72;;;;;;;10.75;60.04;102645.53;4934596;28;99951;-80
2022/01/23 01:51:52;;;;;;;8.77;6.65;;;;;;;10.35;60.99;102642.22;4925459;28;101130;-81
2022/01/23 01:54:20;;;;;;;8.45;6.32;;;;;;;10.35;61.36;102637.81;4935381;28;97210;-80
2022/01/23 01:56:50;;;;;;;8.02;5.85;;;;;;;10.57;60.97;102630.63;4936263;28;97227;-80
2022/01/23 02:02:57;;;;;;;9.95;5.93;;;;;;;10.58;61.33;102631.50;4897314;28;97463;-82
2022/01/23 02:08:23;;;;;;;9.35;6.03;;;;;;;10.41;61.07;102628.97;4937669;28;96887;-78
2022/01/23 02:11:00;;;;;;;9.00;6.05;;;;;;;10.52;60.76;102636.84;4926269;28;99253;-76
2022/01/23 02:24:03;;;;;;;10.27;6.50;;;;;;;10.48;60.66;102643.03;4938598;28;99413;-80
2022/01/23 03:59:37;;;;;;;8.63;6.03;;;;;;;10.41;60.29;102660.69;5859575;23;99948;-79
2022/01/23 04:02:06;;;;;;;8.50;5.65;;;;;;;10.74;59.58;102663.16;4955338;28;97554;-79
2022/01/23 04:04:41;;;;;;;7.63;5.80;;;;;;;10.69;59.16;102662.31;4959793;28;97746;-79
2022/01/23 04:07:18;;;;;;;7.03;5.57;;;;;;;10.35;59.95;102661.59;4948539;28;98532;-80
2022/01/23 04:09:49;;;;;;;7.50;5.53;;;;;;;10.47;59.65;102660.66;4947691;28;98953;-80
2022/01/23 04:59:40;;;;;;;9.90;5.85;;;;;;;10.32;61.12;102697.69;4976835;28;98357;-78
2022/01/23 05:02:23;;;;;;;12.05;6.20;;;;;;;9.67;61.70;102706.63;5004185;28;97850;-79
2022/01/23 05:04:52;;;;;;;9.00;6.40;;;;;;;10.28;61.64;102699.50;5006286;28;99311;-78
2022/01/23 05:07:18;;;;;;;7.47;5.00;;;;;;;10.02;61.01;102703.06;5002839;28;96788;-80
2022/01/23 05:09:46;;;;;;;7.20;5.30;;;;;;;10.24;60.84;102699.53;5009034;28;97391;-78
2022/01/23 05:12:14;;;;;;;8.18;6.25;;;;;;;10.22;61.86;102702.16;4995886;28;97714;-79
2022/01/23 05:14:49;;;;;;;8.60;5.53;;;;;;;10.44;60.51;102712.63;4983507;28;98905;-80
2022/01/23 05:17:23;;;;;;;8.95;6.07;;;;;;;10.56;60.18;102709.97;4989414;28;96775;-81
2022/01/23 05:19:54;;;;;;;9.73;6.38;;;;;;;10.69;60.20;102714.31;4992978;28;98947;-80
2022/01/23 05:23:03;;;;;;;;;;;;;;;;;;;;;
2022/01/23 05:55:41;;;;;;;10.73;7.13;;;;;;;10.48;60.35;102725.84;4914227;28;97325;-80
2022/01/23 05:58:35;;;;;;;11.25;7.32;;;;;;;10.55;60.23;102732.88;4910652;28;99261;-81
2022/01/23 06:01:05;;;;;;;12.23;7.78;;;;;;;10.22;60.88;102735.63;4911220;28;98047;-78
2022/01/23 06:03:38;;;;;;;11.95;8.25;;;;;;;10.25;61.12;102738.25;4918515;28;97023;-78
2022/01/23 06:06:31;;;;;;;13.30;8.30;;;;;;;10.27;60.44;102747.06;4914675;28;99017;-82
2022/01/23 06:09:00;;;;;;;10.45;7.82;;;;;;;10.35;60.57;102740.00;4896350;28;98931;-79
2022/01/23 06:11:29;;;;;;;11.45;8.13;;;;;;;10.40;59.53;102748.78;4915817;28;97544;-78
2022/01/23 06:13:56;;;;;;;15.15;9.27;;;;;;;10.02;60.47;102747.97;4915956;28;98498;-80
2022/01/23 06:16:23;;;;;;;13.40;8.63;;;;;;;10.55;60.02;102753.13;4916260;28;99120;-79
2022/01/23 06:18:50;;;;;;;11.95;8.35;;;;;;;9.95;60.18;102753.25;4915593;28;98963;-79
2022/01/23 06:21:31;;;;;;;11.63;8.05;;;;;;;10.15;61.70;102757.63;4931742;28;96813;-81
2022/01/23 06:24:04;;;;;;;10.50;7.55;;;;;;;10.21;61.58;102760.28;4922208;28;97580;-81
2022/01/23 06:26:54;;;;;;;11.82;8.38;;;;;;;9.97;61.61;102751.50;4923632;28;98521;-80
2022/01/23 06:29:45;;;;;;;;;;;;;;;;;;;;;
2022/01/23 06:32:28;;;;;;;;;;;;;;;;;;;;;
2022/01/23 06:35:19;;;;;;;;;;;;;;;;;;;;;
2022/01/23 06:37:59;;;;;;;;;;;;;;;;;;;;;
2022/01/23 06:40:29;;;;;;;15.57;9.45;;;;;;;10.58;60.72;102759.28;4909338;28;127026;-80
2022/01/23 06:42:57;;;;;;;12.98;8.82;;;;;;;10.05;61.63;102771.72;4922156;28;96863;-80
2022/01/23 06:45:43;;;;;;;;;;;;;;;;;;;;;
2022/01/23 06:48:14;;;;;;;15.88;9.27;;;;;;;10.13;61.88;102767.31;4912601;28;127375;-79
2022/01/23 06:50:43;;;;;;;11.77;8.55;;;;;;;10.06;61.60;102761.16;4927184;28;101270;-81
2022/01/23 07:04:51;;;;;;;11.88;8.00;;;;;;;10.43;61.37;102764.63;4223805;26;98946;-80
2022/01/23 07:20:56;;;;;;;;;;;;;;;;;;;;;
2022/01/23 07:39:03;;;;;;;;;;;;;;;;;;;;;
2022/01/23 08:16:16;;;;;;;9.27;6.60;;;;;;;11.12;59.63;102841.94;4953575;28;98061;-79
2022/01/23 10:01:31;;;;;;;3.92;3.58;;;;;;;11.96;57.57;102892.66;5742259;22;99676;-82
2022/01/23 11:07:22;;;;;;;;;;;;;;;;;;;;;
2022/01/23 11:22:22;;;;;;;6.20;4.13;;;;;;;12.57;56.66;102887.72;4802655;29;97376;-80
2022/01/23 11:24:49;;;;;;;5.68;4.20;;;;;;;12.48;55.33;102882.47;4955277;28;98324;-79
2022/01/23 11:35:08;;;;;;;5.63;4.28;;;;;;;13.34;54.04;102888.59;5854281;23;100752;-81
2022/01/23 11:51:01;;;;;;;;;;;;;;;;;;;;;
2022/01/23 11:53:52;;;;;;;5.18;3.20;;;;;;;13.15;53.29;102882.66;4950758;28;126753;-81
2022/01/23 12:28:21;;;;;;;3.00;2.00;;;;;;;12.77;55.26;102899.00;5639355;23;98894;-77
2022/01/23 12:30:51;;;;;;;4.47;1.58;;;;;;;12.62;55.34;102892.97;4966619;28;98951;-84
2022/01/23 12:33:28;;;;;;;2.65;2.03;;;;;;;12.74;55.29;102888.41;4958118;28;96971;-84
2022/01/23 12:57:35;;;;;;;3.33;2.50;;;;;;;13.03;54.53;102880.13;5988069;23;99490;-84
2022/01/23 13:00:09;;;;;;;5.72;2.45;;;;;;;12.72;55.45;102881.38;4941725;28;98931;-82
2022/01/23 13:02:42;;;;;;;2.78;2.22;;;;;;;12.45;56.40;102881.66;4930588;28;96807;-77
2022/01/23 13:08:08;;;;;;;3.60;2.53;;;;;;;12.14;57.63;102879.25;5033501;23;125585;-79
2022/01/23 13:10:55;;;;;;;3.83;2.70;;;;;;;12.60;57.15;102871.75;4914647;28;99262;-85
2022/01/23 13:13:35;;;;;;;3.95;2.55;;;;;;;12.83;56.23;102871.50;4912878;28;96931;-85
2022/01/23 13:16:21;;;;;;;4.45;2.13;;;;;;;12.98;55.99;102878.44;4912428;28;97156;-82
2022/01/23 13:19:19;;;;;;;2.70;2.00;;;;;;;12.93;55.44;102880.25;4914194;28;99184;-80
2022/01/23 13:37:59;;;;;;;5.43;2.70;;;;;;;12.19;56.87;102888.06;5126088;23;100240;-77
2022/01/23 13:40:36;;;;;;;4.00;2.30;;;;;;;12.31;57.33;102895.03;4927909;28;99552;-79
2022/01/23 13:51:37;;;;;;;5.53;2.38;;;;;;;12.61;56.91;102896.50;4914777;28;97987;-80
2022/01/23 13:57:37;;;;;;;2.78;1.80;;;;;;;12.26;56.86;102889.78;4914798;28;100343;-80
2022/01/23 14:00:01;;;;;;;3.53;1.98;;;;;;;12.36;57.66;102894.09;4911191;28;98115;-81
2022/01/23 14:02:30;;;;;;;3.28;2.20;;;;;;;12.64;56.93;102894.72;4912943;28;98315;-80
2022/01/23 14:05:07;;;;;;;3.17;2.13;;;;;;;12.54;56.52;102898.34;4916137;28;98437;-79
2022/01/23 14:07:34;;;;;;;3.72;2.53;;;;;;;12.28;58.33;102895.91;4918205;28;96752;-80
2022/01/23 14:10:32;;;;;;;4.25;2.22;;;;;;;12.34;58.50;102900.28;4921121;28;97339;-79
2022/01/23 14:13:07;;;;;;;4.93;2.58;;;;;;;12.62;57.15;102898.25;4916837;28;98543;-81
2022/01/23 14:15:34;;;;;;;5.18;1.90;;;;;;;12.62;57.39;102900.91;4921306;28;97515;-79
2022/01/23 14:18:04;;;;;;;2.28;1.58;;;;;;;12.34;57.46;102906.47;4917592;28;99259;-79
2022/01/23 14:20:33;;;;;;;2.60;2.00;;;;;;;12.68;57.07;102900.84;4918097;28;98659;-79
2022/01/23 14:23:10;;;;;;;4.88;1.70;;;;;;;12.54;57.17;102908.94;4924347;28;99748;-78
2022/01/23 14:25:45;;;;;;;3.63;2.10;;;;;;;12.16;57.10;102906.63;4918056;28;99073;-79
2022/01/23 14:28:15;;;;;;;1.20;1.10;;;;;;;11.66;60.09;102909.59;4912599;28;98717;-80
2022/01/23 14:30:44;;;;;;;1.70;1.33;;;;;;;11.62;60.24;102904.34;4918924;28;96956;-80
2022/01/23 14:33:17;;;;;;;1.90;1.70;;;;;;;11.69;59.61;102912.22;4918124;28;98934;-80
2022/01/23 14:35:45;;;;;;;5.32;1.67;;;;;;;11.80;60.04;102917.50;4917647;28;98915;-81
2022/01/23 14:38:14;;;;;;;1.85;1.52;;;;;;;12.19;58.80;102909.28;4923411;28;96804;-78
2022/01/23 14:40:52;;;;;;;3.40;1.80;;;;;;;12.22;58.03;102913.66;4921617;28;97731;-79
2022/01/23 14:43:19;;;;;;;2.72;1.60;;;;;;;11.98;58.02;102910.31;4920266;28;98657;-79
2022/01/23 14:45:48;;;;;;;2.58;2.20;;;;;;;11.68;59.20;102905.19;4921636;28;99489;-79
2022/01/23 14:48:17;;;;;;;2.83;1.70;;;;;;;11.70;58.86;102900.72;4917548;28;96896;-78
2022/01/23 14:50:50;;;;;;;3.17;1.73;;;;;;;11.88;58.44;102899.78;4915891;28;96868;-79
2022/01/23 14:53:19;;;;;;;3.30;1.55;;;;;;;11.77;58.63;102905.16;4913099;28;99492;-78
2022/01/23 14:55:49;;;;;;;2.50;1.70;;;;;;;12.24;56.77;102910.09;4911221;28;99097;-78
2022/01/23 14:58:19;;;;;;;2.50;2.00;;;;;;;11.84;57.24;102913.94;4912072;28;97302;-79
2022/01/23 15:00:46;;;;;;;2.55;1.67;;;;;;;11.74;58.70;102907.81;4913816;28;97669;-78
2022/01/23 15:03:15;;;;;;;2.33;1.75;;;;;;;12.14;57.17;102902.25;4914862;28;99317;-81
2022/01/23 15:05:42;;;;;;;5.60;2.20;;;;;;;12.04;57.41;102903.19;4921383;28;96947;-79
2022/01/23 15:08:13;;;;;;;4.82;2.22;;;;;;;12.31;56.39;102911.81;4918037;28;97237;-80
2022/01/23 15:10:41;;;;;;;12.70;5.13;;;;;;;12.23;56.82;102913.63;4916332;28;96911;-81
2022/01/23 15:13:10;;;;;;;8.10;3.80;;;;;;;12.41;56.93;102917.00;4915626;28;101596;-81
2022/01/23 15:15:37;;;;;;;9.73;5.97;;;;;;;12.48;56.10;102919.59;4917435;28;97997;-81
2022/01/23 15:18:05;;;;;;;3.17;2.03;;;;;;;12.59;55.96;102924.84;4917118;28;97246;-80
2022/01/23 15:20:33;;;;;;;3.63;1.60;;;;;;;12.41;55.86;102922.31;4917115;28;97634;-79
2022/01/23 15:23:00;;;;;;;2.38;1.40;;;;;;;12.28;56.68;102929.50;4917066;28;99063;-79
2022/01/23 15:25:28;;;;;;;2.95;1.73;;;;;;;12.40;56.41;102926.78;4915982;28;101484;-80
2022/01/23 15:27:54;;;;;;;2.35;1.10;;;;;;;12.42;56.19;102929.38;4916811;28;97065;-80
2022/01/23 15:30:25;;;;;;;1.73;1.17;;;;;;;12.43;55.52;102926.72;4916738;28;97369;-82
2022/01/23 15:32:57;;;;;;;1.30;1.20;;;;;;;12.06;56.31;102944.69;4922595;28;99386;-81
2022/01/23 15:35:25;;;;;;;2.05;1.10;;;;;;;11.73;58.25;102951.06;4918819;28;100427;-81
2022/01/23 15:37:53;;;;;;;1.85;1.38;;;;;;;11.26;60.53;102950.38;4917017;28;96812;-81
2022/01/23 15:40:20;;;;;;;4.95;1.70;;;;;;;11.47;60.52;102959.13;4915183;28;97062;-78
2022/01/23 15:42:49;;;;;;;2.17;1.50;;;;;;;11.65;60.08;102954.63;4915395;28;101556;-79
2022/01/23 15:45:16;;;;;;;2.03;1.58;;;;;;;11.81;59.34;102957.22;4913833;28;98872;-79
2022/01/23 15:47:45;;;;;;;2.60;1.50;;;;;;;12.01;59.24;102966.81;4915127;28;98299;-80
2022/01/23 15:50:14;;;;;;;4.85;1.77;;;;;;;11.88;58.71;102966.88;4918920;28;96824;-80
2022/01/23 15:52:41;;;;;;;2.85;1.50;;;;;;;11.77;59.48;102968.72;4918818;28;99021;-78
2022/01/23 15:55:10;;;;;;;2.53;1.52;;;;;;;12.09;58.18;102967.63;4918907;28;98060;-79
2022/01/23 15:57:37;;;;;;;4.63;2.10;;;;;;;11.93;57.79;102974.81;4927851;28;97134;-80
2022/01/23 16:00:07;;;;;;;1.80;1.65;;;;;;;11.96;58.38;102977.44;4924134;28;97311;-79
2022/01/23 16:02:34;;;;;;;3.25;1.63;;;;;;;11.90;58.75;102977.47;4917197;28;97863;-80
2022/01/23 16:05:03;;;;;;;4.38;1.75;;;;;;;12.08;57.63;102981.81;4923371;28;97254;-81
2022/01/23 16:07:29;;;;;;;2.20;1.20;;;;;;;12.21;57.81;102979.03;4926539;28;96945;-81
2022/01/23 16:09:56;;;;;;;3.47;1.83;;;;;;;12.25;57.74;102983.44;4928504;28;96898;-79
2022/01/23 16:12:23;;;;;;;3.05;1.38;;;;;;;12.42;57.38;102982.41;4922712;28;98443;-81
2022/01/23 16:14:50;;;;;;;2.88;2.00;;;;;;;12.40;57.17;102987.75;4916571;28;99112;-80
2022/01/23 16:17:17;;;;;;;3.40;2.17;;;;;;;12.40;56.64;102990.41;4916204;28;96881;-81
2022/01/23 16:19:46;;;;;;;3.90;2.00;;;;;;;12.40;56.00;102994.81;4917668;28;96788;-81
2022/01/23 16:22:23;;;;;;;4.03;2.25;;;;;;;12.21;56.72;102989.63;4917109;28;98052;-82
2022/01/23 16:24:50;;;;;;;4.93;2.50;;;;;;;12.09;57.15;102989.72;4915323;28;101221;-81
2022/01/23 16:27:17;;;;;;;5.72;2.80;;;;;;;12.02;56.96;102990.63;4915795;28;97111;-79
2022/01/23 16:29:43;;;;;;;3.60;1.40;;;;;;;11.72;57.13;102991.66;4914413;28;97302;-80
2022/01/23 16:32:10;;;;;;;6.60;2.72;;;;;;;11.63;58.15;102994.34;4915682;28;99635;-79
2022/01/23 16:34:37;;;;;;;6.90;2.35;;;;;;;11.72;57.57;102990.78;4915366;28;99742;-78
2022/01/23 16:37:05;;;;;;;4.43;2.15;;;;;;;11.88;57.88;102995.16;4918745;28;96825;-79
2022/01/23 16:39:33;;;;;;;2.30;1.23;;;;;;;12.12;56.72;102995.00;4914989;28;97668;-79
2022/01/23 16:42:00;;;;;;;3.00;1.50;;;;;;;12.05;57.37;102992.41;4914842;28;101176;-77
2022/01/23 16:44:28;;;;;;;1.27;1.08;;;;;;;12.13;57.30;103003.84;4916842;28;97955;-77
2022/01/23 16:46:55;;;;;;;3.80;1.40;;;;;;;12.22;56.76;102996.69;4918588;28;97414;-77
2022/01/23 16:49:22;;;;;;;2.90;1.30;;;;;;;12.25;56.27;103006.41;4916760;28;96902;-80
2022/01/23 16:51:48;;;;;;;5.40;1.55;;;;;;;12.25;56.44;103002.00;4917176;28;101404;-78
2022/01/23 16:54:17;;;;;;;3.15;1.80;;;;;;;12.32;56.58;103011.66;4916461;28;99016;-79
2022/01/23 16:56:45;;;;;;;6.25;2.78;;;;;;;12.05;57.54;103003.88;4926282;28;96839;-78
2022/01/23 16:59:14;;;;;;;3.70;2.08;;;;;;;12.29;57.87;103014.31;4925670;28;96962;-79
2022/01/23 17:01:46;;;;;;;2.58;1.63;;;;;;;12.26;57.20;103010.81;4921956;28;97302;-78
2022/01/23 17:04:15;;;;;;;3.75;2.20;;;;;;;12.08;57.03;103009.16;4923285;28;100527;-78
2022/01/23 17:06:45;;;;;;;4.78;2.40;;;;;;;11.92;58.02;103008.38;4927899;28;97140;-78
2022/01/23 17:09:14;;;;;;;6.30;2.45;;;;;;;11.72;57.91;103006.69;4927428;28;98026;-79
2022/01/23 17:11:42;;;;;;;3.00;1.88;;;;;;;11.90;58.27;102999.53;4926194;28;98906;-79
2022/01/23 17:14:10;;;;;;;3.92;2.28;;;;;;;12.08;57.43;102998.56;4927809;28;99630;-78
2022/01/23 17:16:36;;;;;;;3.88;2.20;;;;;;;12.15;57.43;102994.97;4932826;28;96638;-79
2022/01/23 17:19:03;;;;;;;4.95;2.35;;;;;;;12.28;56.92;102995.78;4927612;28;96900;-78
2022/01/23 17:21:30;;;;;;;7.38;3.33;;;;;;;12.23;57.09;102992.28;4927016;28;98008;-78
2022/01/23 17:23:57;;;;;;;7.82;3.03;;;;;;;12.19;57.45;103001.16;4918499;28;98781;-79
2022/01/23 17:26:26;;;;;;;8.50;3.00;;;;;;;12.01;58.05;102995.97;4923741;28;96843;-79
2022/01/23 17:28:53;;;;;;;6.82;3.70;;;;;;;12.11;57.47;103001.19;4918126;28;96890;-80
2022/01/23 17:31:21;;;;;;;11.23;4.00;;;;;;;11.89;57.78;102999.53;4919358;28;102363;-81
2022/01/23 17:33:48;;;;;;;6.43;3.47;;;;;;;11.96;57.98;102993.31;4920549;28;99940;-79
2022/01/23 17:36:14;;;;;;;6.53;2.92;;;;;;;11.87;58.72;102988.97;4915452;28;96714;-79
2022/01/23 17:38:41;;;;;;;3.70;2.42;;;;;;;12.01;58.17;102988.91;4918768;28;96924;-78
2022/01/23 17:41:08;;;;;;;5.80;2.58;;;;;;;12.02;58.33;102988.00;4921929;28;97710;-79
2022/01/23 17:43:35;;;;;;;4.60;2.50;;;;;;;11.60;59.43;102986.44;4921989;28;97865;-79
2022/01/23 17:46:05;;;;;;;3.50;2.72;;;;;;;11.93;58.73;102980.13;4916789;28;98668;-80
2022/01/23 17:48:46;;;;;;;2.83;2.30;;;;;;;11.63;59.44;102982.88;4926511;28;96872;-79
2022/01/23 17:51:15;;;;;;;2.78;2.20;;;;;;;11.89;58.66;102986.31;4921559;28;99105;-78
2022/01/23 17:53:43;;;;;;;5.13;2.75;;;;;;;11.77;58.78;102986.38;4935298;28;97916;-79
2022/01/23 17:56:09;;;;;;;3.53;2.13;;;;;;;12.05;58.60;102982.69;4930562;28;96737;-79
2022/01/23 17:58:36;;;;;;;5.38;2.72;;;;;;;12.27;57.60;102989.59;4936788;28;96029;-78
2022/01/23 18:01:04;;;;;;;5.22;2.85;;;;;;;12.32;57.92;102984.28;4930023;28;97060;-79
2022/01/23 18:03:33;;;;;;;10.48;6.22;;;;;;;12.28;57.60;102991.34;4930610;28;99830;-80
2022/01/23 18:06:00;;;;;;;3.60;2.60;;;;;;;11.98;58.03;102989.78;4927019;28;97155;-79
2022/01/23 18:08:30;;;;;;;2.85;2.55;;;;;;;11.82;59.34;102992.50;4915573;28;97095;-79
2022/01/23 18:10:57;;;;;;;7.00;3.15;;;;;;;12.17;58.67;102992.31;4914479;28;101054;-82
2022/01/23 18:13:25;;;;;;;3.25;2.95;;;;;;;11.97;59.05;102993.31;4927859;28;99053;-79
2022/01/23 18:15:53;;;;;;;3.97;2.92;;;;;;;12.09;58.47;102995.00;4934737;28;96839;-79
2022/01/23 18:18:19;;;;;;;5.72;3.13;;;;;;;12.15;58.53;102983.50;4934762;28;96875;-80
2022/01/23 18:20:48;;;;;;;5.95;3.00;;;;;;;12.08;57.62;102992.41;4936708;28;98943;-81
2022/01/23 18:23:16;;;;;;;4.00;3.05;;;;;;;11.74;59.00;102997.00;4935771;28;98842;-79
2022/01/23 18:25:45;;;;;;;4.43;2.75;;;;;;;11.76;59.38;103006.69;4930782;28;99713;-80
2022/01/23 18:28:13;;;;;;;4.05;2.83;;;;;;;11.76;59.24;102996.09;4931939;28;97347;-83
2022/01/23 18:30:40;;;;;;;6.82;2.88;;;;;;;11.84;58.99;103002.22;4930092;28;100831;-80
2022/01/23 18:33:07;;;;;;;2.88;2.20;;;;;;;11.72;58.80;102999.63;4927923;28;98954;-80
2022/01/23 18:35:34;;;;;;;151.70;66.05;;;;;;;11.83;58.97;102997.81;4931788;28;96883;-82
2022/01/23 18:38:04;;;;;;;7.85;4.30;;;;;;;11.82;59.03;103005.75;4931367;28;96857;-82
2022/01/23 18:40:32;;;;;;;5.70;3.25;;;;;;;12.07;58.61;103010.06;4932297;28;99845;-81
2022/01/23 18:42:58;;;;;;;5.00;3.28;;;;;;;12.16;57.83;103007.34;4939708;28;100875;-80
2022/01/23 18:45:25;;;;;;;4.50;3.17;;;;;;;12.14;57.91;103018.88;4941184;28;96831;-82
2022/01/23 18:47:55;;;;;;;6.50;4.22;;;;;;;12.08;57.88;103010.94;4948741;28;97332;-81
2022/01/23 18:57:04;;;;;;;3.33;2.58;;;;;;;11.69;59.32;103009.31;4894025;28;98760;-81
2022/01/23 18:59:34;;;;;;;4.78;3.63;;;;;;;11.61;58.83;103013.78;4928868;28;97399;-81
2022/01/23 19:02:03;;;;;;;4.93;3.50;;;;;;;11.90;58.19;103020.75;4934649;28;99209;-81
2022/01/23 19:04:37;;;;;;;6.95;3.47;;;;;;;11.86;58.27;103018.13;4933902;28;97781;-80
2022/01/23 19:07:16;;;;;;;5.15;3.28;;;;;;;11.24;60.08;103005.94;4932141;28;97008;-80
2022/01/23 19:09:45;;;;;;;5.55;3.47;;;;;;;11.64;60.17;103011.13;4936035;28;96790;-80
2022/01/23 19:12:13;;;;;;;10.82;4.57;;;;;;;11.85;58.81;103013.72;4932886;28;99371;-80
2022/01/23 19:14:40;;;;;;;13.10;7.10;;;;;;;11.69;58.99;103010.19;4933842;28;99245;-79
2022/01/23 19:17:07;;;;;;;6.50;4.20;;;;;;;11.79;58.45;103006.69;4932036;28;97386;-80
2022/01/23 19:19:34;;;;;;;6.28;4.03;;;;;;;12.03;58.80;103016.25;4931906;28;97042;-81
2022/01/23 19:22:01;;;;;;;7.65;3.65;;;;;;;11.96;58.27;103017.16;4934522;28;100707;-79
2022/01/23 19:24:30;;;;;;;5.30;3.55;;;;;;;11.74;58.92;103018.19;4938182;28;98150;-80
2022/01/23 19:26:59;;;;;;;4.65;3.55;;;;;;;11.77;58.70;103015.50;4938649;28;97685;-80
2022/01/23 19:29:33;;;;;;;5.72;3.38;;;;;;;11.67;59.50;103016.41;4937748;28;96953;-80
2022/01/23 19:32:01;;;;;;;5.72;3.97;;;;;;;11.65;59.47;103024.34;4937986;28;99873;-82
2022/01/23 19:34:29;;;;;;;4.18;3.33;;;;;;;11.37;60.06;103020.03;4936197;28;99936;-82
2022/01/23 22:22:46;;;;;;;22.60;9.93;;;;;;;11.85;60.72;103069.34;4848073;28;97396;-82
2022/01/23 22:28:32;;;;;;;20.85;9.52;;;;;;;11.63;61.89;103076.44;4960511;28;96762;-81
2022/01/23 23:13:34;;;;;;;25.00;11.02;;;;;;;12.03;61.41;103085.16;5258666;23;98119;-81
2022/01/23 23:48:38;;;;;;;29.33;11.25;;;;;;;12.17;60.00;103079.78;5331479;23;96888;-80
2022/01/23 23:51:05;;;;;;;22.58;10.50;;;;;;;12.08;60.71;103077.19;4955538;28;97819;-82
